x

South Huron - 43nm East Of Oscoda, Mi (45008) Wave Buoy

7:50pm - Fri 17th Nov 2017 All times are CST. -6 hours from GMT.

  • Sig Wave height 7.5ft
  • Swell Direction
  • Peak Period 6s
  • Average Period 5s
  • Wind
    31mph, 38mph gusts
  • Sea Temp 45°f
  • Air Temp 44°f
  • Sea Pressure 1008.8mb
  • South Huron - 43nm East Of Oscoda, Mi
  • South Huron - 43nm East Of Oscoda, Mi

More Historic Weather Station data

Upgrade to MSW Pro to gain access to the past 30 days of data for over 8000 Wavebouys and Weather Stations around the globe.

Join

Comparision Forecast

View Surf forecast
   
Fri 11/17 7:50pm 7.5ft 6s 5s 31 38 mph 1008.8mb 45f 44f
6:50pm 7.5ft 6s 5s 31 40 mph 1010.1mb 45f 43f
5:50pm 6ft 6s 5s 29 36 mph 1012.2mb 45f 42f
4:50pm 5.5ft 5s 5s 29 36 mph 1012.8mb 46f 42f
3:50pm 4.5ft 5s 4s 25 31 mph 1015.2mb 46f 41f
2:50pm  -   -   -  25 29 mph 1016.3mb 46f 39f
1:50pm 3ft 4s 4s 22 29 mph 1017.4mb 46f 38f
12:50pm 2.5ft 3s 3s 22 27 mph 1018.6mb 46f 38f
11:50am 1.6ft 3s 3s 18 22 mph 1020.7mb 46f 38f
10:50am 1.3ft 3s 3s 16 20 mph 1022.4mb 46f 36f
9:50am 1ft 4s 3s 13 18 mph 1023.5mb 46f 35f
8:50am  -   -   -  9 13 mph 1024.5mb 46f 34f
7:50am 1.3ft 5s 4s 7 9 mph 1025.5mb 46f 33f
6:50am 1.6ft 5s 4s 7 9 mph 1025.8mb 46f 33f
5:50am 1.6ft 5s 4s 2 7 mph 1026mb 46f 33f
4:50am 2ft 5s 4s 7 9 mph 1025.7mb 46f 33f
3:50am 2ft 5s 4s 2 4 mph 1025.3mb 46f 33f
2:50am  -   -   -  7 13 mph 1025mb 45f 32f
1:50am 3ft 5s 4s 13 18 mph 1025.3mb 45f 32f
12:50am 3.5ft 6s 4s 11 18 mph 1025.3mb 45f 32f
Thu 11/16 11:50pm 4ft 6s 5s 11 16 mph 1025.5mb 46f 32f
10:50pm 4.5ft 6s 5s 13 20 mph 1024.9mb 46f 33f
9:50pm 4.5ft 7s 5s 13 20 mph 1024.4mb 46f 33f
8:50pm  -   -   -  16 22 mph 1023.8mb 46f 34f
7:50pm 6.5ft 6s 5s 22 29 mph 1023.4mb 46f 35f
6:50pm 7ft 7s 5s 25 29 mph 1022.7mb 46f 36f
5:50pm 7ft 7s 5s 27 31 mph 1021.9mb 46f 36f
4:50pm 8ft 7s 6s 27 34 mph 1020.8mb 46f 37f
3:50pm 8ft 7s 6s 27 34 mph 1019.4mb 46f 37f
2:50pm  -   -   -  29 36 mph 1018.2mb 46f 37f
1:50pm 8ft 8s 6s 29 38 mph 1017.3mb 46f 36f
12:50pm 9ft 8s 6s 31 40 mph 1015.8mb 46f 37f
11:50am 9ft 8s 6s 31 38 mph 1014.3mb 46f 39f
10:50am 9ft 7s 6s 31 38 mph 1013.3mb 46f 38f
9:50am 9ft 8s 6s 31 38 mph 1012.2mb 46f 39f
8:50am  -   -   -  34 43 mph 1010.5mb 46f 40f
7:50am 8.5ft 7s 5s 34 38 mph 1009.1mb 45f 40f
6:50am 8.5ft 7s 5s 34 40 mph 1007.5mb 45f 41f
5:50am 6ft 6s 5s 29 38 mph 1006mb 46f 42f
4:50am 6.5ft 6s 5s 31 36 mph 1004.8mb 46f 42f
3:50am 6.5ft 6s 5s 31 38 mph 1003.8mb 46f 42f
2:50am  -   -   -  34 40 mph 1002.8mb 46f 42f
1:50am 6ft 6s 5s 31 38 mph 1002.7mb 46f 42f
12:50am 6ft 6s 5s 31 40 mph 1002.4mb 46f 43f
Wed 11/15 11:50pm 5.5ft 6s 5s 31 38 mph 1001.8mb 46f 44f
10:50pm 5ft 5s 4s 29 36 mph 1001.3mb 46f 45f
9:50pm 5ft 6s 4s 25 29 mph 1000.9mb 46f 45f
8:50pm  -   -   -  25 29 mph 1000.9mb 46f 45f
7:50pm 5ft 6s 5s 20 25 mph 1001.4mb 46f 44f
6:50pm 6ft 7s 5s 25 31 mph 1001.8mb 46f 44f
5:50pm 6.5ft 7s 5s 27 31 mph 1002.8mb 46f 44f
4:50pm 7ft 7s 5s 27 34 mph 1003.8mb 46f 44f
3:50pm 6ft 7s 5s 29 36 mph 1004.6mb 46f 44f
2:50pm  -   -   -  31 38 mph 1005.2mb 46f 43f
1:50pm 6.5ft 6s 5s 31 38 mph 1006.9mb 46f 44f
12:50pm 6.5ft 7s 5s 25 29 mph 1008.9mb 46f 44f
11:50am 6.5ft 6s 5s 29 36 mph 1010.4mb 47f 45f
10:50am 7ft 6s 5s 29 36 mph 1012.4mb 47f 45f
9:50am 7ft 7s 5s 29 36 mph 1012.9mb 47f 45f
8:50am  -   -   -  31 38 mph 1013.4mb 47f 44f
7:50am 5.5ft 6s 5s 27 34 mph 1015.3mb 47f 45f
6:50am 5ft 6s 5s 27 31 mph 1016mb 47f 45f
5:50am 5ft 6s 5s 25 31 mph 1017.4mb 47f 45f
4:50am 5ft 6s 5s 27 31 mph 1018.4mb 47f 45f
3:50am 5ft 6s 5s 27 31 mph 1018.7mb 47f 45f
2:50am  -   -   -  25 31 mph 1019.2mb 47f 46f
1:50am 5ft 6s 5s 27 31 mph 1019.7mb 47f 46f
12:50am 4.5ft 5s 4s 25 31 mph 1020.7mb 47f 45f
Tue 11/14 11:50pm 4ft 6s 4s 25 29 mph 1021.5mb 47f 44f
10:50pm 4.5ft 5s 4s 22 27 mph 1021.9mb 47f 44f
9:50pm 4ft 5s 4s 22 27 mph 1022.3mb 47f 44f
8:50pm  -   -   -  22 27 mph 1023mb 48f 45f
7:50pm 3ft 4s 4s 22 25 mph 1022.8mb 48f 45f
6:50pm 2.5ft 4s 4s 20 25 mph 1023.3mb 48f 45f
5:50pm 2.5ft 3s 3s 18 20 mph 1023.7mb 48f 44f
4:50pm 1.6ft 3s 3s 18 20 mph 1023.9mb 48f 43f
3:50pm 1.3ft 3s 3s 16 18 mph 1024.4mb 48f 42f
2:50pm  -   -   -  13 16 mph 1025.4mb 48f 42f
1:50pm 1ft 3s 3s 7 9 mph 1026mb 48f 42f
12:50pm 1ft 3s 3s 9 11 mph 1026.6mb 48f 42f
11:50am 0.7ft  -  3s 11 13 mph 1027mb 47f 41f
10:50am 0.7ft  -  3s 11 13 mph 1027.8mb 47f 42f
9:50am 0.7ft  -  3s 9 11 mph 1028.2mb 47f 42f
8:50am  -   -   -  7 9 mph 1028.4mb 47f 42f
7:50am 0.7ft  -  3s 7 9 mph 1028.7mb 47f 42f
6:50am 0.7ft  -  3s 7 9 mph 1028.7mb 47f 41f
5:50am 0.7ft  -  3s 9 11 mph 1028.7mb 47f 42f
4:50am 1ft 3s 3s 9 11 mph 1028.7mb 47f 42f
3:50am 0.7ft  -  3s 9 11 mph 1028.6mb 47f 42f